sensor_id;sensor_type;location;lat;lon;timestamp;P1;durP1;ratioP1;P2;durP2;ratioP2
21860;SDS011;11095;48.066;8.540;2023-04-06T00:01:35;12.88;;;7.93;;
21860;SDS011;11095;48.066;8.540;2023-04-06T00:04:01;10.93;;;7.70;;
21860;SDS011;11095;48.066;8.540;2023-04-06T00:06:26;11.23;;;7.88;;
21860;SDS011;11095;48.066;8.540;2023-04-06T00:08:52;11.50;;;7.53;;
21860;SDS011;11095;48.066;8.540;2023-04-06T00:11:18;12.38;;;8.05;;
21860;SDS011;11095;48.066;8.540;2023-04-06T00:13:44;11.13;;;7.40;;
21860;SDS011;11095;48.066;8.540;2023-04-06T00:16:10;9.82;;;7.03;;
21860;SDS011;11095;48.066;8.540;2023-04-06T00:18:36;10.48;;;7.45;;
21860;SDS011;11095;48.066;8.540;2023-04-06T00:21:02;10.52;;;7.47;;
21860;SDS011;11095;48.066;8.540;2023-04-06T00:23:28;11.93;;;7.70;;
21860;SDS011;11095;48.066;8.540;2023-04-06T00:25:53;10.70;;;7.25;;
21860;SDS011;11095;48.066;8.540;2023-04-06T00:28:20;11.30;;;7.50;;
21860;SDS011;11095;48.066;8.540;2023-04-06T00:30:50;12.52;;;7.85;;
21860;SDS011;11095;48.066;8.540;2023-04-06T00:33:17;13.00;;;7.53;;
21860;SDS011;11095;48.066;8.540;2023-04-06T00:35:44;11.27;;;7.85;;
21860;SDS011;11095;48.066;8.540;2023-04-06T00:38:10;10.48;;;7.07;;
21860;SDS011;11095;48.066;8.540;2023-04-06T00:40:36;13.70;;;7.95;;
21860;SDS011;11095;48.066;8.540;2023-04-06T00:43:02;13.02;;;7.95;;
21860;SDS011;11095;48.066;8.540;2023-04-06T00:45:28;11.30;;;7.65;;
21860;SDS011;11095;48.066;8.540;2023-04-06T00:47:53;11.00;;;7.50;;
21860;SDS011;11095;48.066;8.540;2023-04-06T00:50:19;9.88;;;7.43;;
21860;SDS011;11095;48.066;8.540;2023-04-06T00:52:45;11.35;;;7.90;;
21860;SDS011;11095;48.066;8.540;2023-04-06T00:55:11;9.52;;;7.57;;
21860;SDS011;11095;48.066;8.540;2023-04-06T00:57:37;11.73;;;7.65;;
21860;SDS011;11095;48.066;8.540;2023-04-06T01:00:03;11.95;;;8.20;;
21860;SDS011;11095;48.066;8.540;2023-04-06T01:02:29;13.07;;;7.90;;
21860;SDS011;11095;48.066;8.540;2023-04-06T01:04:55;14.80;;;8.43;;
21860;SDS011;11095;48.066;8.540;2023-04-06T01:07:21;11.90;;;8.05;;
21860;SDS011;11095;48.066;8.540;2023-04-06T01:09:47;11.18;;;7.97;;
21860;SDS011;11095;48.066;8.540;2023-04-06T01:12:12;10.77;;;8.23;;
21860;SDS011;11095;48.066;8.540;2023-04-06T01:14:38;13.77;;;8.38;;
21860;SDS011;11095;48.066;8.540;2023-04-06T01:17:04;11.63;;;8.00;;
21860;SDS011;11095;48.066;8.540;2023-04-06T01:19:30;11.70;;;8.30;;
21860;SDS011;11095;48.066;8.540;2023-04-06T01:21:55;11.80;;;7.90;;
21860;SDS011;11095;48.066;8.540;2023-04-06T01:24:21;11.52;;;7.57;;
21860;SDS011;11095;48.066;8.540;2023-04-06T01:26:47;11.27;;;7.95;;
21860;SDS011;11095;48.066;8.540;2023-04-06T01:29:13;11.68;;;8.20;;
21860;SDS011;11095;48.066;8.540;2023-04-06T01:31:39;10.25;;;7.38;;
21860;SDS011;11095;48.066;8.540;2023-04-06T01:34:05;12.93;;;7.90;;
21860;SDS011;11095;48.066;8.540;2023-04-06T01:36:31;11.20;;;8.07;;
21860;SDS011;11095;48.066;8.540;2023-04-06T01:38:57;11.75;;;7.90;;
21860;SDS011;11095;48.066;8.540;2023-04-06T01:41:23;10.90;;;7.38;;
21860;SDS011;11095;48.066;8.540;2023-04-06T01:43:49;11.40;;;7.90;;
21860;SDS011;11095;48.066;8.540;2023-04-06T01:46:15;12.07;;;7.43;;
21860;SDS011;11095;48.066;8.540;2023-04-06T01:48:41;10.73;;;7.35;;
21860;SDS011;11095;48.066;8.540;2023-04-06T01:51:13;10.50;;;7.57;;
21860;SDS011;11095;48.066;8.540;2023-04-06T01:53:40;10.93;;;8.10;;
21860;SDS011;11095;48.066;8.540;2023-04-06T01:56:20;10.93;;;7.53;;
21860;SDS011;11095;48.066;8.540;2023-04-06T01:58:46;12.02;;;8.13;;
21860;SDS011;11095;48.066;8.540;2023-04-06T02:01:12;11.48;;;8.10;;
21860;SDS011;11095;48.066;8.540;2023-04-06T02:03:38;11.93;;;7.85;;
21860;SDS011;11095;48.066;8.540;2023-04-06T02:06:04;11.70;;;8.00;;
21860;SDS011;11095;48.066;8.540;2023-04-06T02:08:30;11.35;;;7.70;;
21860;SDS011;11095;48.066;8.540;2023-04-06T02:10:55;11.10;;;8.02;;
21860;SDS011;11095;48.066;8.540;2023-04-06T02:13:21;12.30;;;8.20;;
21860;SDS011;11095;48.066;8.540;2023-04-06T02:15:47;11.63;;;8.40;;
21860;SDS011;11095;48.066;8.540;2023-04-06T02:18:13;13.02;;;8.50;;
21860;SDS011;11095;48.066;8.540;2023-04-06T02:20:39;11.90;;;8.55;;
21860;SDS011;11095;48.066;8.540;2023-04-06T02:23:05;10.35;;;7.32;;
21860;SDS011;11095;48.066;8.540;2023-04-06T02:25:36;12.07;;;8.38;;
21860;SDS011;11095;48.066;8.540;2023-04-06T02:28:02;14.25;;;8.30;;
21860;SDS011;11095;48.066;8.540;2023-04-06T02:30:28;11.13;;;7.90;;
21860;SDS011;11095;48.066;8.540;2023-04-06T02:32:57;12.88;;;8.30;;
21860;SDS011;11095;48.066;8.540;2023-04-06T02:35:25;11.60;;;8.30;;
21860;SDS011;11095;48.066;8.540;2023-04-06T02:37:53;12.60;;;8.48;;
21860;SDS011;11095;48.066;8.540;2023-04-06T02:40:20;13.15;;;8.30;;
21860;SDS011;11095;48.066;8.540;2023-04-06T02:42:46;10.82;;;7.47;;
21860;SDS011;11095;48.066;8.540;2023-04-06T02:45:12;10.48;;;7.88;;
21860;SDS011;11095;48.066;8.540;2023-04-06T02:47:37;12.57;;;8.35;;
21860;SDS011;11095;48.066;8.540;2023-04-06T02:50:04;11.38;;;7.80;;
21860;SDS011;11095;48.066;8.540;2023-04-06T02:52:30;12.13;;;8.10;;
21860;SDS011;11095;48.066;8.540;2023-04-06T02:54:55;11.95;;;8.57;;
21860;SDS011;11095;48.066;8.540;2023-04-06T02:57:21;13.77;;;8.60;;
21860;SDS011;11095;48.066;8.540;2023-04-06T02:59:47;10.82;;;8.07;;
21860;SDS011;11095;48.066;8.540;2023-04-06T03:02:12;12.40;;;8.13;;
21860;SDS011;11095;48.066;8.540;2023-04-06T03:04:38;12.80;;;8.02;;
21860;SDS011;11095;48.066;8.540;2023-04-06T03:07:03;11.38;;;8.30;;
21860;SDS011;11095;48.066;8.540;2023-04-06T03:09:29;11.70;;;8.63;;
21860;SDS011;11095;48.066;8.540;2023-04-06T03:11:58;10.65;;;8.15;;
21860;SDS011;11095;48.066;8.540;2023-04-06T03:14:23;12.13;;;8.32;;
21860;SDS011;11095;48.066;8.540;2023-04-06T03:16:49;13.60;;;8.55;;
21860;SDS011;11095;48.066;8.540;2023-04-06T03:19:15;12.68;;;8.63;;
21860;SDS011;11095;48.066;8.540;2023-04-06T03:21:41;11.40;;;8.13;;
21860;SDS011;11095;48.066;8.540;2023-04-06T03:24:07;12.68;;;8.45;;
21860;SDS011;11095;48.066;8.540;2023-04-06T03:26:33;12.57;;;9.10;;
21860;SDS011;11095;48.066;8.540;2023-04-06T03:28:58;11.63;;;8.38;;
21860;SDS011;11095;48.066;8.540;2023-04-06T03:31:25;12.68;;;8.68;;
21860;SDS011;11095;48.066;8.540;2023-04-06T03:33:51;15.30;;;9.45;;
21860;SDS011;11095;48.066;8.540;2023-04-06T03:36:17;14.05;;;9.35;;
21860;SDS011;11095;48.066;8.540;2023-04-06T03:38:42;15.07;;;8.95;;
21860;SDS011;11095;48.066;8.540;2023-04-06T03:41:08;14.13;;;9.32;;
21860;SDS011;11095;48.066;8.540;2023-04-06T03:43:34;13.88;;;9.15;;
21860;SDS011;11095;48.066;8.540;2023-04-06T03:46:00;13.43;;;9.50;;
21860;SDS011;11095;48.066;8.540;2023-04-06T03:48:26;12.95;;;9.00;;
21860;SDS011;11095;48.066;8.540;2023-04-06T03:50:51;14.35;;;8.75;;
21860;SDS011;11095;48.066;8.540;2023-04-06T03:53:17;13.05;;;9.15;;
21860;SDS011;11095;48.066;8.540;2023-04-06T03:55:43;14.55;;;9.68;;
21860;SDS011;11095;48.066;8.540;2023-04-06T03:58:08;14.05;;;9.18;;
21860;SDS011;11095;48.066;8.540;2023-04-06T04:00:34;12.07;;;8.63;;
21860;SDS011;11095;48.066;8.540;2023-04-06T04:02:59;13.13;;;8.73;;
21860;SDS011;11095;48.066;8.540;2023-04-06T04:05:27;11.40;;;8.68;;
21860;SDS011;11095;48.066;8.540;2023-04-06T04:07:52;14.80;;;9.05;;
21860;SDS011;11095;48.066;8.540;2023-04-06T04:10:18;14.02;;;9.07;;
21860;SDS011;11095;48.066;8.540;2023-04-06T04:12:44;14.85;;;9.20;;
21860;SDS011;11095;48.066;8.540;2023-04-06T04:15:09;15.55;;;9.90;;
21860;SDS011;11095;48.066;8.540;2023-04-06T04:17:35;13.48;;;9.30;;
21860;SDS011;11095;48.066;8.540;2023-04-06T04:20:01;12.85;;;9.52;;
21860;SDS011;11095;48.066;8.540;2023-04-06T04:22:26;15.15;;;9.57;;
21860;SDS011;11095;48.066;8.540;2023-04-06T04:24:52;15.35;;;9.70;;
21860;SDS011;11095;48.066;8.540;2023-04-06T04:27:18;13.07;;;9.23;;
21860;SDS011;11095;48.066;8.540;2023-04-06T04:29:44;13.95;;;9.20;;
21860;SDS011;11095;48.066;8.540;2023-04-06T04:32:10;13.18;;;9.18;;
21860;SDS011;11095;48.066;8.540;2023-04-06T04:34:36;13.88;;;9.15;;
21860;SDS011;11095;48.066;8.540;2023-04-06T04:37:05;13.57;;;8.90;;
21860;SDS011;11095;48.066;8.540;2023-04-06T04:39:30;13.65;;;9.35;;
21860;SDS011;11095;48.066;8.540;2023-04-06T04:41:56;11.38;;;8.77;;
21860;SDS011;11095;48.066;8.540;2023-04-06T04:44:22;13.50;;;8.90;;
21860;SDS011;11095;48.066;8.540;2023-04-06T04:46:47;13.32;;;9.57;;
21860;SDS011;11095;48.066;8.540;2023-04-06T04:49:13;14.57;;;9.05;;
21860;SDS011;11095;48.066;8.540;2023-04-06T04:51:39;14.20;;;9.80;;
21860;SDS011;11095;48.066;8.540;2023-04-06T04:54:05;15.68;;;9.48;;
21860;SDS011;11095;48.066;8.540;2023-04-06T04:56:30;13.88;;;9.75;;
21860;SDS011;11095;48.066;8.540;2023-04-06T04:58:56;12.85;;;9.52;;
21860;SDS011;11095;48.066;8.540;2023-04-06T05:01:22;14.82;;;10.27;;
21860;SDS011;11095;48.066;8.540;2023-04-06T05:03:47;13.75;;;9.73;;
21860;SDS011;11095;48.066;8.540;2023-04-06T05:06:13;16.10;;;9.77;;
21860;SDS011;11095;48.066;8.540;2023-04-06T05:08:38;16.05;;;10.80;;
21860;SDS011;11095;48.066;8.540;2023-04-06T05:11:04;14.00;;;9.95;;
21860;SDS011;11095;48.066;8.540;2023-04-06T05:13:30;14.70;;;10.20;;
21860;SDS011;11095;48.066;8.540;2023-04-06T05:15:56;12.63;;;9.18;;
21860;SDS011;11095;48.066;8.540;2023-04-06T05:18:22;11.07;;;8.43;;
21860;SDS011;11095;48.066;8.540;2023-04-06T05:20:47;9.65;;;7.28;;
21860;SDS011;11095;48.066;8.540;2023-04-06T05:23:13;7.93;;;6.65;;
21860;SDS011;11095;48.066;8.540;2023-04-06T05:25:39;8.65;;;6.38;;
21860;SDS011;11095;48.066;8.540;2023-04-06T05:28:05;9.68;;;6.10;;
21860;SDS011;11095;48.066;8.540;2023-04-06T05:30:31;8.52;;;6.15;;
21860;SDS011;11095;48.066;8.540;2023-04-06T05:32:56;8.20;;;5.78;;
21860;SDS011;11095;48.066;8.540;2023-04-06T05:35:23;9.73;;;6.10;;
21860;SDS011;11095;48.066;8.540;2023-04-06T05:37:49;7.72;;;6.20;;
21860;SDS011;11095;48.066;8.540;2023-04-06T05:40:14;7.53;;;5.78;;
21860;SDS011;11095;48.066;8.540;2023-04-06T05:42:41;6.97;;;5.72;;
21860;SDS011;11095;48.066;8.540;2023-04-06T05:45:10;7.93;;;5.78;;
21860;SDS011;11095;48.066;8.540;2023-04-06T05:47:41;6.15;;;5.22;;
21860;SDS011;11095;48.066;8.540;2023-04-06T05:50:11;7.57;;;5.77;;
21860;SDS011;11095;48.066;8.540;2023-04-06T05:52:36;7.38;;;5.57;;
21860;SDS011;11095;48.066;8.540;2023-04-06T05:55:02;5.65;;;5.10;;
21860;SDS011;11095;48.066;8.540;2023-04-06T05:57:29;7.63;;;5.22;;
21860;SDS011;11095;48.066;8.540;2023-04-06T05:59:54;5.63;;;4.72;;
21860;SDS011;11095;48.066;8.540;2023-04-06T06:02:20;6.93;;;4.75;;
21860;SDS011;11095;48.066;8.540;2023-04-06T06:04:46;6.30;;;5.28;;
21860;SDS011;11095;48.066;8.540;2023-04-06T06:07:13;5.93;;;4.60;;
21860;SDS011;11095;48.066;8.540;2023-04-06T06:09:40;5.63;;;4.93;;
21860;SDS011;11095;48.066;8.540;2023-04-06T06:12:06;7.45;;;5.18;;
21860;SDS011;11095;48.066;8.540;2023-04-06T06:14:32;6.97;;;5.32;;
21860;SDS011;11095;48.066;8.540;2023-04-06T06:16:57;6.82;;;5.45;;
21860;SDS011;11095;48.066;8.540;2023-04-06T06:19:23;6.95;;;5.00;;
21860;SDS011;11095;48.066;8.540;2023-04-06T06:21:48;8.32;;;5.47;;
21860;SDS011;11095;48.066;8.540;2023-04-06T06:24:14;6.80;;;5.03;;
21860;SDS011;11095;48.066;8.540;2023-04-06T06:26:40;6.57;;;5.20;;
21860;SDS011;11095;48.066;8.540;2023-04-06T06:29:06;6.85;;;5.00;;
21860;SDS011;11095;48.066;8.540;2023-04-06T06:31:32;5.43;;;4.47;;
21860;SDS011;11095;48.066;8.540;2023-04-06T06:33:57;6.30;;;4.70;;
21860;SDS011;11095;48.066;8.540;2023-04-06T06:36:23;5.03;;;4.03;;
21860;SDS011;11095;48.066;8.540;2023-04-06T06:38:50;5.50;;;4.50;;
21860;SDS011;11095;48.066;8.540;2023-04-06T06:41:16;5.55;;;4.05;;
21860;SDS011;11095;48.066;8.540;2023-04-06T06:43:42;4.70;;;3.88;;
21860;SDS011;11095;48.066;8.540;2023-04-06T06:46:08;5.45;;;4.45;;
21860;SDS011;11095;48.066;8.540;2023-04-06T06:48:34;4.47;;;4.00;;
21860;SDS011;11095;48.066;8.540;2023-04-06T06:50:59;4.55;;;3.75;;
21860;SDS011;11095;48.066;8.540;2023-04-06T06:53:25;4.47;;;3.80;;
21860;SDS011;11095;48.066;8.540;2023-04-06T06:55:51;5.07;;;4.05;;
21860;SDS011;11095;48.066;8.540;2023-04-06T06:58:19;4.22;;;3.83;;
21860;SDS011;11095;48.066;8.540;2023-04-06T07:00:45;4.30;;;3.90;;
21860;SDS011;11095;48.066;8.540;2023-04-06T07:03:11;4.50;;;3.67;;
21860;SDS011;11095;48.066;8.540;2023-04-06T07:05:37;4.90;;;4.05;;
21860;SDS011;11095;48.066;8.540;2023-04-06T07:08:03;4.63;;;4.18;;
21860;SDS011;11095;48.066;8.540;2023-04-06T07:10:28;5.00;;;4.20;;
21860;SDS011;11095;48.066;8.540;2023-04-06T07:12:54;5.22;;;4.10;;
21860;SDS011;11095;48.066;8.540;2023-04-06T07:15:20;4.28;;;3.70;;
21860;SDS011;11095;48.066;8.540;2023-04-06T07:17:45;4.35;;;3.78;;
21860;SDS011;11095;48.066;8.540;2023-04-06T07:20:11;5.97;;;3.83;;
21860;SDS011;11095;48.066;8.540;2023-04-06T07:22:38;4.72;;;4.18;;
21860;SDS011;11095;48.066;8.540;2023-04-06T07:25:04;4.97;;;4.03;;
21860;SDS011;11095;48.066;8.540;2023-04-06T07:27:30;5.18;;;4.28;;
21860;SDS011;11095;48.066;8.540;2023-04-06T07:29:56;5.10;;;3.60;;
21860;SDS011;11095;48.066;8.540;2023-04-06T07:32:22;5.03;;;3.92;;
21860;SDS011;11095;48.066;8.540;2023-04-06T07:34:47;5.55;;;4.03;;
21860;SDS011;11095;48.066;8.540;2023-04-06T07:37:13;6.13;;;4.25;;
21860;SDS011;11095;48.066;8.540;2023-04-06T07:39:39;5.20;;;4.35;;
21860;SDS011;11095;48.066;8.540;2023-04-06T07:42:05;4.70;;;4.30;;
21860;SDS011;11095;48.066;8.540;2023-04-06T07:44:31;4.65;;;4.20;;
21860;SDS011;11095;48.066;8.540;2023-04-06T07:46:56;4.15;;;3.75;;
21860;SDS011;11095;48.066;8.540;2023-04-06T07:49:22;6.40;;;4.32;;
21860;SDS011;11095;48.066;8.540;2023-04-06T07:51:48;4.40;;;3.92;;
21860;SDS011;11095;48.066;8.540;2023-04-06T07:54:13;4.75;;;4.32;;
21860;SDS011;11095;48.066;8.540;2023-04-06T07:56:39;4.60;;;4.20;;
21860;SDS011;11095;48.066;8.540;2023-04-06T07:59:04;5.13;;;4.50;;
21860;SDS011;11095;48.066;8.540;2023-04-06T08:01:30;5.78;;;5.15;;
21860;SDS011;11095;48.066;8.540;2023-04-06T08:03:56;5.68;;;5.13;;
21860;SDS011;11095;48.066;8.540;2023-04-06T08:06:22;4.97;;;4.47;;
21860;SDS011;11095;48.066;8.540;2023-04-06T08:08:48;4.93;;;4.43;;
21860;SDS011;11095;48.066;8.540;2023-04-06T08:11:14;5.30;;;4.80;;
21860;SDS011;11095;48.066;8.540;2023-04-06T08:13:39;5.68;;;4.43;;
21860;SDS011;11095;48.066;8.540;2023-04-06T08:16:05;6.15;;;4.97;;
21860;SDS011;11095;48.066;8.540;2023-04-06T08:18:31;5.60;;;4.47;;
21860;SDS011;11095;48.066;8.540;2023-04-06T08:20:57;5.70;;;4.60;;
21860;SDS011;11095;48.066;8.540;2023-04-06T08:23:22;5.85;;;4.45;;
21860;SDS011;11095;48.066;8.540;2023-04-06T08:25:49;5.30;;;4.70;;
21860;SDS011;11095;48.066;8.540;2023-04-06T08:28:15;6.00;;;4.88;;
21860;SDS011;11095;48.066;8.540;2023-04-06T08:30:41;6.43;;;5.78;;
21860;SDS011;11095;48.066;8.540;2023-04-06T08:33:07;5.28;;;4.55;;
21860;SDS011;11095;48.066;8.540;2023-04-06T08:35:33;4.97;;;4.57;;
21860;SDS011;11095;48.066;8.540;2023-04-06T08:37:59;5.28;;;4.60;;
21860;SDS011;11095;48.066;8.540;2023-04-06T08:40:25;5.53;;;4.70;;
21860;SDS011;11095;48.066;8.540;2023-04-06T08:42:54;5.47;;;4.50;;
21860;SDS011;11095;48.066;8.540;2023-04-06T08:45:21;5.40;;;4.85;;
21860;SDS011;11095;48.066;8.540;2023-04-06T08:47:48;4.97;;;4.47;;
21860;SDS011;11095;48.066;8.540;2023-04-06T08:50:16;6.18;;;4.38;;
21860;SDS011;11095;48.066;8.540;2023-04-06T08:52:43;4.30;;;3.90;;
21860;SDS011;11095;48.066;8.540;2023-04-06T08:55:11;5.40;;;4.40;;
21860;SDS011;11095;48.066;8.540;2023-04-06T08:57:37;5.05;;;4.55;;
21860;SDS011;11095;48.066;8.540;2023-04-06T09:00:03;5.55;;;4.80;;
21860;SDS011;11095;48.066;8.540;2023-04-06T09:02:29;5.90;;;4.70;;
21860;SDS011;11095;48.066;8.540;2023-04-06T09:04:55;5.35;;;4.50;;
21860;SDS011;11095;48.066;8.540;2023-04-06T09:07:22;6.60;;;4.78;;
21860;SDS011;11095;48.066;8.540;2023-04-06T09:09:48;5.50;;;4.90;;
21860;SDS011;11095;48.066;8.540;2023-04-06T09:12:23;5.47;;;4.78;;
21860;SDS011;11095;48.066;8.540;2023-04-06T09:14:52;5.28;;;4.45;;
21860;SDS011;11095;48.066;8.540;2023-04-06T09:17:22;5.68;;;5.05;;
21860;SDS011;11095;48.066;8.540;2023-04-06T09:19:49;5.43;;;4.57;;
21860;SDS011;11095;48.066;8.540;2023-04-06T09:22:15;6.47;;;5.15;;
21860;SDS011;11095;48.066;8.540;2023-04-06T09:27:08;5.55;;;4.68;;
21860;SDS011;11095;48.066;8.540;2023-04-06T09:29:34;5.30;;;4.45;;
21860;SDS011;11095;48.066;8.540;2023-04-06T09:32:10;6.15;;;4.72;;
21860;SDS011;11095;48.066;8.540;2023-04-06T09:34:37;6.13;;;5.35;;
21860;SDS011;11095;48.066;8.540;2023-04-06T09:37:13;6.47;;;5.47;;
21860;SDS011;11095;48.066;8.540;2023-04-06T09:39:43;5.97;;;5.20;;
21860;SDS011;11095;48.066;8.540;2023-04-06T09:42:08;6.43;;;5.32;;
21860;SDS011;11095;48.066;8.540;2023-04-06T09:44:34;7.20;;;5.80;;
21860;SDS011;11095;48.066;8.540;2023-04-06T09:47:00;6.13;;;4.80;;
21860;SDS011;11095;48.066;8.540;2023-04-06T09:49:30;7.43;;;5.28;;
21860;SDS011;11095;48.066;8.540;2023-04-06T09:52:01;5.97;;;5.18;;
21860;SDS011;11095;48.066;8.540;2023-04-06T09:54:31;6.60;;;4.93;;
21860;SDS011;11095;48.066;8.540;2023-04-06T09:59:51;5.93;;;4.78;;
21860;SDS011;11095;48.066;8.540;2023-04-06T10:02:32;5.90;;;4.95;;
21860;SDS011;11095;48.066;8.540;2023-04-06T10:08:06;5.60;;;4.90;;
21860;SDS011;11095;48.066;8.540;2023-04-06T10:10:35;5.25;;;4.45;;
21860;SDS011;11095;48.066;8.540;2023-04-06T10:13:01;6.30;;;5.20;;
21860;SDS011;11095;48.066;8.540;2023-04-06T10:15:29;6.28;;;4.97;;
21860;SDS011;11095;48.066;8.540;2023-04-06T10:17:55;7.97;;;4.88;;
21860;SDS011;11095;48.066;8.540;2023-04-06T10:23:35;6.97;;;5.53;;
21860;SDS011;11095;48.066;8.540;2023-04-06T10:26:03;7.35;;;5.70;;
21860;SDS011;11095;48.066;8.540;2023-04-06T10:28:33;8.10;;;6.10;;
21860;SDS011;11095;48.066;8.540;2023-04-06T10:31:04;7.28;;;5.93;;
21860;SDS011;11095;48.066;8.540;2023-04-06T10:33:31;6.45;;;5.25;;
21860;SDS011;11095;48.066;8.540;2023-04-06T10:35:57;7.40;;;5.97;;
21860;SDS011;11095;48.066;8.540;2023-04-06T10:38:35;7.78;;;5.68;;
21860;SDS011;11095;48.066;8.540;2023-04-06T10:41:07;6.90;;;5.65;;
21860;SDS011;11095;48.066;8.540;2023-04-06T10:43:36;7.07;;;5.60;;
21860;SDS011;11095;48.066;8.540;2023-04-06T10:46:04;8.35;;;5.95;;
21860;SDS011;11095;48.066;8.540;2023-04-06T10:48:41;7.13;;;5.85;;
21860;SDS011;11095;48.066;8.540;2023-04-06T10:51:14;7.25;;;5.32;;
21860;SDS011;11095;48.066;8.540;2023-04-06T10:53:42;8.32;;;5.53;;
21860;SDS011;11095;48.066;8.540;2023-04-06T10:56:17;8.55;;;6.30;;
21860;SDS011;11095;48.066;8.540;2023-04-06T10:58:50;5.80;;;5.00;;
21860;SDS011;11095;48.066;8.540;2023-04-06T11:01:21;7.35;;;5.43;;
21860;SDS011;11095;48.066;8.540;2023-04-06T11:03:48;6.85;;;5.95;;
21860;SDS011;11095;48.066;8.540;2023-04-06T11:06:21;7.55;;;5.72;;
21860;SDS011;11095;48.066;8.540;2023-04-06T11:08:48;6.38;;;5.38;;
21860;SDS011;11095;48.066;8.540;2023-04-06T11:11:15;6.70;;;5.38;;
21860;SDS011;11095;48.066;8.540;2023-04-06T11:18:58;7.60;;;5.95;;
21860;SDS011;11095;48.066;8.540;2023-04-06T11:21:37;7.20;;;6.10;;
21860;SDS011;11095;48.066;8.540;2023-04-06T11:24:09;7.35;;;5.57;;
21860;SDS011;11095;48.066;8.540;2023-04-06T11:26:37;6.95;;;6.03;;
21860;SDS011;11095;48.066;8.540;2023-04-06T11:29:06;7.10;;;5.65;;
21860;SDS011;11095;48.066;8.540;2023-04-06T11:31:39;7.45;;;6.00;;
21860;SDS011;11095;48.066;8.540;2023-04-06T11:34:09;7.00;;;5.90;;
21860;SDS011;11095;48.066;8.540;2023-04-06T11:39:04;8.23;;;6.32;;
21860;SDS011;11095;48.066;8.540;2023-04-06T11:41:32;9.07;;;6.45;;
21860;SDS011;11095;48.066;8.540;2023-04-06T11:43:57;7.60;;;6.15;;
21860;SDS011;11095;48.066;8.540;2023-04-06T11:46:26;6.80;;;5.72;;
21860;SDS011;11095;48.066;8.540;2023-04-06T11:48:52;7.85;;;6.00;;
21860;SDS011;11095;48.066;8.540;2023-04-06T11:51:26;8.02;;;6.03;;
21860;SDS011;11095;48.066;8.540;2023-04-06T11:53:52;7.05;;;5.07;;
21860;SDS011;11095;48.066;8.540;2023-04-06T11:56:24;5.72;;;4.60;;
21860;SDS011;11095;48.066;8.540;2023-04-06T11:58:52;7.57;;;5.35;;
21860;SDS011;11095;48.066;8.540;2023-04-06T12:01:22;6.90;;;5.35;;
21860;SDS011;11095;48.066;8.540;2023-04-06T12:03:49;7.25;;;4.68;;
21860;SDS011;11095;48.066;8.540;2023-04-06T12:06:15;5.78;;;4.43;;
21860;SDS011;11095;48.066;8.540;2023-04-06T12:08:41;4.95;;;4.45;;
21860;SDS011;11095;48.066;8.540;2023-04-06T12:11:07;5.30;;;4.22;;
21860;SDS011;11095;48.066;8.540;2023-04-06T12:13:32;5.82;;;4.40;;
21860;SDS011;11095;48.066;8.540;2023-04-06T12:15:58;5.22;;;4.40;;
21860;SDS011;11095;48.066;8.540;2023-04-06T12:18:24;6.05;;;4.63;;
21860;SDS011;11095;48.066;8.540;2023-04-06T12:20:51;4.88;;;4.20;;
21860;SDS011;11095;48.066;8.540;2023-04-06T12:23:18;5.97;;;4.53;;
21860;SDS011;11095;48.066;8.540;2023-04-06T12:25:44;6.00;;;4.22;;
21860;SDS011;11095;48.066;8.540;2023-04-06T12:28:10;5.65;;;4.28;;
21860;SDS011;11095;48.066;8.540;2023-04-06T12:30:36;6.18;;;4.30;;
21860;SDS011;11095;48.066;8.540;2023-04-06T12:33:01;4.75;;;4.13;;
21860;SDS011;11095;48.066;8.540;2023-04-06T12:35:27;6.60;;;4.68;;
21860;SDS011;11095;48.066;8.540;2023-04-06T12:37:53;8.10;;;5.07;;
21860;SDS011;11095;48.066;8.540;2023-04-06T12:40:19;6.15;;;4.57;;
21860;SDS011;11095;48.066;8.540;2023-04-06T12:42:45;5.80;;;4.47;;
21860;SDS011;11095;48.066;8.540;2023-04-06T12:45:11;5.80;;;4.50;;
21860;SDS011;11095;48.066;8.540;2023-04-06T12:47:37;5.63;;;4.07;;
21860;SDS011;11095;48.066;8.540;2023-04-06T12:50:03;8.00;;;4.85;;
21860;SDS011;11095;48.066;8.540;2023-04-06T12:52:30;6.70;;;5.38;;
21860;SDS011;11095;48.066;8.540;2023-04-06T12:54:57;5.43;;;4.35;;
21860;SDS011;11095;48.066;8.540;2023-04-06T12:57:25;5.82;;;4.55;;
21860;SDS011;11095;48.066;8.540;2023-04-06T12:59:51;5.80;;;4.25;;
21860;SDS011;11095;48.066;8.540;2023-04-06T13:02:17;5.80;;;4.40;;
21860;SDS011;11095;48.066;8.540;2023-04-06T13:04:45;5.25;;;4.22;;
21860;SDS011;11095;48.066;8.540;2023-04-06T13:07:11;4.22;;;3.40;;
21860;SDS011;11095;48.066;8.540;2023-04-06T13:09:36;5.18;;;3.85;;
21860;SDS011;11095;48.066;8.540;2023-04-06T13:12:02;4.38;;;3.50;;
21860;SDS011;11095;48.066;8.540;2023-04-06T13:14:28;5.18;;;3.58;;
21860;SDS011;11095;48.066;8.540;2023-04-06T13:16:54;4.00;;;3.40;;
21860;SDS011;11095;48.066;8.540;2023-04-06T13:19:19;4.32;;;3.33;;
21860;SDS011;11095;48.066;8.540;2023-04-06T13:21:45;4.25;;;3.20;;
21860;SDS011;11095;48.066;8.540;2023-04-06T13:24:11;5.00;;;3.08;;
21860;SDS011;11095;48.066;8.540;2023-04-06T13:26:36;3.88;;;2.70;;
21860;SDS011;11095;48.066;8.540;2023-04-06T13:29:02;3.72;;;2.88;;
21860;SDS011;11095;48.066;8.540;2023-04-06T13:31:28;3.17;;;2.60;;
21860;SDS011;11095;48.066;8.540;2023-04-06T13:33:54;3.92;;;2.78;;
21860;SDS011;11095;48.066;8.540;2023-04-06T13:36:20;4.20;;;2.80;;
21860;SDS011;11095;48.066;8.540;2023-04-06T13:38:46;3.25;;;2.80;;
21860;SDS011;11095;48.066;8.540;2023-04-06T13:41:22;4.15;;;3.17;;
21860;SDS011;11095;48.066;8.540;2023-04-06T13:43:49;4.70;;;3.65;;
21860;SDS011;11095;48.066;8.540;2023-04-06T13:46:14;4.70;;;3.30;;
21860;SDS011;11095;48.066;8.540;2023-04-06T13:48:40;4.28;;;3.28;;
21860;SDS011;11095;48.066;8.540;2023-04-06T13:51:13;4.10;;;2.88;;
21860;SDS011;11095;48.066;8.540;2023-04-06T13:53:40;3.50;;;2.80;;
21860;SDS011;11095;48.066;8.540;2023-04-06T13:56:06;3.83;;;2.47;;
21860;SDS011;11095;48.066;8.540;2023-04-06T13:58:32;3.00;;;2.70;;
21860;SDS011;11095;48.066;8.540;2023-04-06T14:01:05;3.53;;;2.97;;
21860;SDS011;11095;48.066;8.540;2023-04-06T14:03:32;4.97;;;2.72;;
21860;SDS011;11095;48.066;8.540;2023-04-06T14:05:58;3.03;;;2.53;;
21860;SDS011;11095;48.066;8.540;2023-04-06T14:08:24;4.00;;;3.03;;
21860;SDS011;11095;48.066;8.540;2023-04-06T14:10:50;4.15;;;3.10;;
21860;SDS011;11095;48.066;8.540;2023-04-06T14:13:16;4.22;;;3.40;;
21860;SDS011;11095;48.066;8.540;2023-04-06T14:15:42;4.07;;;3.28;;
21860;SDS011;11095;48.066;8.540;2023-04-06T14:18:08;5.00;;;3.35;;
21860;SDS011;11095;48.066;8.540;2023-04-06T14:20:34;3.17;;;2.65;;
21860;SDS011;11095;48.066;8.540;2023-04-06T14:23:03;3.58;;;2.53;;
21860;SDS011;11095;48.066;8.540;2023-04-06T14:25:28;3.80;;;2.93;;
21860;SDS011;11095;48.066;8.540;2023-04-06T14:27:56;4.57;;;2.90;;
21860;SDS011;11095;48.066;8.540;2023-04-06T14:30:22;3.55;;;2.85;;
21860;SDS011;11095;48.066;8.540;2023-04-06T14:32:48;3.80;;;2.83;;
21860;SDS011;11095;48.066;8.540;2023-04-06T14:35:13;4.70;;;2.78;;
21860;SDS011;11095;48.066;8.540;2023-04-06T14:37:39;3.97;;;2.97;;
21860;SDS011;11095;48.066;8.540;2023-04-06T14:40:05;3.20;;;2.50;;
21860;SDS011;11095;48.066;8.540;2023-04-06T14:42:31;3.40;;;2.90;;
21860;SDS011;11095;48.066;8.540;2023-04-06T14:44:57;5.03;;;3.10;;
21860;SDS011;11095;48.066;8.540;2023-04-06T14:47:22;3.13;;;2.72;;
21860;SDS011;11095;48.066;8.540;2023-04-06T14:49:49;4.35;;;3.08;;
21860;SDS011;11095;48.066;8.540;2023-04-06T14:52:16;5.90;;;3.38;;
21860;SDS011;11095;48.066;8.540;2023-04-06T14:54:42;3.58;;;2.80;;
21860;SDS011;11095;48.066;8.540;2023-04-06T14:57:07;3.80;;;2.80;;
21860;SDS011;11095;48.066;8.540;2023-04-06T14:59:33;4.18;;;2.95;;